sensor_id;sensor_type;location;lat;lon;timestamp;P1;durP1;ratioP1;P2;durP2;ratioP2
37983;SDS011;64625;50.882;4.376;2023-04-24T00:00:55;26.02;;;12.30;;
37983;SDS011;64625;50.882;4.376;2023-04-24T00:03:26;28.88;;;13.45;;
37983;SDS011;64625;50.882;4.376;2023-04-24T00:05:53;20.50;;;11.90;;
37983;SDS011;64625;50.882;4.376;2023-04-24T00:08:19;29.50;;;11.75;;
37983;SDS011;64625;50.882;4.376;2023-04-24T00:10:46;25.15;;;11.68;;
37983;SDS011;64625;50.882;4.376;2023-04-24T00:13:12;31.23;;;11.13;;
37983;SDS011;64625;50.882;4.376;2023-04-24T00:15:38;27.30;;;14.68;;
37983;SDS011;64625;50.882;4.376;2023-04-24T00:18:03;26.45;;;12.02;;
37983;SDS011;64625;50.882;4.376;2023-04-24T00:20:29;28.75;;;13.25;;
37983;SDS011;64625;50.882;4.376;2023-04-24T00:22:57;21.88;;;12.38;;
37983;SDS011;64625;50.882;4.376;2023-04-24T00:25:23;20.08;;;12.20;;
37983;SDS011;64625;50.882;4.376;2023-04-24T00:27:49;23.30;;;12.32;;
37983;SDS011;64625;50.882;4.376;2023-04-24T00:30:15;27.15;;;13.50;;
37983;SDS011;64625;50.882;4.376;2023-04-24T00:32:41;27.90;;;12.15;;
37983;SDS011;64625;50.882;4.376;2023-04-24T00:35:07;24.80;;;11.85;;
37983;SDS011;64625;50.882;4.376;2023-04-24T00:37:33;33.20;;;12.43;;
37983;SDS011;64625;50.882;4.376;2023-04-24T00:39:59;29.08;;;13.40;;
37983;SDS011;64625;50.882;4.376;2023-04-24T00:42:25;27.52;;;11.35;;
37983;SDS011;64625;50.882;4.376;2023-04-24T00:44:51;26.83;;;13.30;;
37983;SDS011;64625;50.882;4.376;2023-04-24T00:47:18;21.35;;;11.45;;
37983;SDS011;64625;50.882;4.376;2023-04-24T00:49:44;24.95;;;12.95;;
37983;SDS011;64625;50.882;4.376;2023-04-24T00:52:10;25.58;;;13.13;;
37983;SDS011;64625;50.882;4.376;2023-04-24T00:54:37;30.60;;;12.52;;
37983;SDS011;64625;50.882;4.376;2023-04-24T00:57:04;28.73;;;11.80;;
37983;SDS011;64625;50.882;4.376;2023-04-24T00:59:30;31.50;;;12.82;;
37983;SDS011;64625;50.882;4.376;2023-04-24T01:01:56;34.53;;;12.38;;
37983;SDS011;64625;50.882;4.376;2023-04-24T01:04:23;22.02;;;11.65;;
37983;SDS011;64625;50.882;4.376;2023-04-24T01:06:51;29.27;;;12.55;;
37983;SDS011;64625;50.882;4.376;2023-04-24T01:09:17;25.90;;;13.60;;
37983;SDS011;64625;50.882;4.376;2023-04-24T01:11:44;29.52;;;12.68;;
37983;SDS011;64625;50.882;4.376;2023-04-24T01:14:10;30.85;;;13.27;;
37983;SDS011;64625;50.882;4.376;2023-04-24T01:16:36;27.58;;;13.60;;
37983;SDS011;64625;50.882;4.376;2023-04-24T01:19:04;41.63;;;14.63;;
37983;SDS011;64625;50.882;4.376;2023-04-24T01:21:31;28.73;;;13.32;;
37983;SDS011;64625;50.882;4.376;2023-04-24T01:24:03;25.15;;;12.63;;
37983;SDS011;64625;50.882;4.376;2023-04-24T01:26:30;22.60;;;12.15;;
37983;SDS011;64625;50.882;4.376;2023-04-24T01:28:56;23.30;;;12.93;;
37983;SDS011;64625;50.882;4.376;2023-04-24T01:31:23;28.65;;;15.40;;
37983;SDS011;64625;50.882;4.376;2023-04-24T01:33:49;27.63;;;13.18;;
37983;SDS011;64625;50.882;4.376;2023-04-24T01:36:16;27.23;;;14.05;;
37983;SDS011;64625;50.882;4.376;2023-04-24T01:38:43;31.55;;;13.82;;
37983;SDS011;64625;50.882;4.376;2023-04-24T01:41:09;23.08;;;12.88;;
37983;SDS011;64625;50.882;4.376;2023-04-24T01:43:35;24.75;;;12.88;;
37983;SDS011;64625;50.882;4.376;2023-04-24T01:46:01;26.10;;;12.23;;
37983;SDS011;64625;50.882;4.376;2023-04-24T01:48:27;23.85;;;11.32;;
37983;SDS011;64625;50.882;4.376;2023-04-24T01:50:56;20.63;;;10.55;;
37983;SDS011;64625;50.882;4.376;2023-04-24T01:53:22;22.95;;;10.38;;
37983;SDS011;64625;50.882;4.376;2023-04-24T01:55:48;18.27;;;9.68;;
37983;SDS011;64625;50.882;4.376;2023-04-24T01:58:14;23.60;;;10.50;;
37983;SDS011;64625;50.882;4.376;2023-04-24T02:00:40;24.73;;;10.98;;
37983;SDS011;64625;50.882;4.376;2023-04-24T02:03:06;18.67;;;10.45;;
37983;SDS011;64625;50.882;4.376;2023-04-24T02:05:32;22.08;;;10.45;;
37983;SDS011;64625;50.882;4.376;2023-04-24T02:07:58;22.98;;;11.23;;
37983;SDS011;64625;50.882;4.376;2023-04-24T02:10:24;16.83;;;10.35;;
37983;SDS011;64625;50.882;4.376;2023-04-24T02:12:50;25.63;;;10.55;;
37983;SDS011;64625;50.882;4.376;2023-04-24T02:15:16;19.65;;;11.10;;
37983;SDS011;64625;50.882;4.376;2023-04-24T02:17:43;28.08;;;14.52;;
37983;SDS011;64625;50.882;4.376;2023-04-24T02:20:08;17.75;;;10.52;;
37983;SDS011;64625;50.882;4.376;2023-04-24T02:22:34;24.83;;;11.50;;
37983;SDS011;64625;50.882;4.376;2023-04-24T02:25:00;19.75;;;12.25;;
37983;SDS011;64625;50.882;4.376;2023-04-24T02:27:26;17.15;;;11.65;;
37983;SDS011;64625;50.882;4.376;2023-04-24T02:29:52;18.95;;;11.40;;
37983;SDS011;64625;50.882;4.376;2023-04-24T02:32:19;15.85;;;10.98;;
37983;SDS011;64625;50.882;4.376;2023-04-24T02:34:45;18.55;;;11.93;;
37983;SDS011;64625;50.882;4.376;2023-04-24T02:37:11;26.40;;;13.82;;
37983;SDS011;64625;50.882;4.376;2023-04-24T02:39:36;25.40;;;11.93;;
37983;SDS011;64625;50.882;4.376;2023-04-24T02:42:02;27.30;;;12.02;;
37983;SDS011;64625;50.882;4.376;2023-04-24T02:44:28;23.08;;;13.20;;
37983;SDS011;64625;50.882;4.376;2023-04-24T02:46:54;27.65;;;12.27;;
37983;SDS011;64625;50.882;4.376;2023-04-24T02:49:19;29.58;;;14.75;;
37983;SDS011;64625;50.882;4.376;2023-04-24T02:51:48;25.92;;;14.02;;
37983;SDS011;64625;50.882;4.376;2023-04-24T02:54:14;18.48;;;12.00;;
37983;SDS011;64625;50.882;4.376;2023-04-24T02:56:40;26.08;;;13.43;;
37983;SDS011;64625;50.882;4.376;2023-04-24T02:59:06;23.35;;;14.35;;
37983;SDS011;64625;50.882;4.376;2023-04-24T03:01:31;24.50;;;14.25;;
37983;SDS011;64625;50.882;4.376;2023-04-24T03:03:57;25.88;;;12.50;;
37983;SDS011;64625;50.882;4.376;2023-04-24T03:06:23;24.98;;;12.65;;
37983;SDS011;64625;50.882;4.376;2023-04-24T03:08:50;29.58;;;13.38;;
37983;SDS011;64625;50.882;4.376;2023-04-24T03:11:16;21.23;;;12.20;;
37983;SDS011;64625;50.882;4.376;2023-04-24T03:13:42;29.85;;;14.77;;
37983;SDS011;64625;50.882;4.376;2023-04-24T03:16:08;27.50;;;14.00;;
37983;SDS011;64625;50.882;4.376;2023-04-24T03:18:33;36.03;;;13.60;;
37983;SDS011;64625;50.882;4.376;2023-04-24T03:21:00;31.88;;;13.32;;
37983;SDS011;64625;50.882;4.376;2023-04-24T03:23:26;20.55;;;11.80;;
37983;SDS011;64625;50.882;4.376;2023-04-24T03:25:52;22.88;;;12.85;;
37983;SDS011;64625;50.882;4.376;2023-04-24T03:28:19;16.05;;;9.90;;
37983;SDS011;64625;50.882;4.376;2023-04-24T03:30:45;17.60;;;10.60;;
37983;SDS011;64625;50.882;4.376;2023-04-24T03:33:11;16.30;;;10.70;;
37983;SDS011;64625;50.882;4.376;2023-04-24T03:35:37;22.50;;;10.13;;
37983;SDS011;64625;50.882;4.376;2023-04-24T03:38:03;20.95;;;11.55;;
37983;SDS011;64625;50.882;4.376;2023-04-24T03:40:31;15.20;;;9.18;;
37983;SDS011;64625;50.882;4.376;2023-04-24T03:42:58;16.73;;;9.98;;
37983;SDS011;64625;50.882;4.376;2023-04-24T03:45:24;16.33;;;8.77;;
37983;SDS011;64625;50.882;4.376;2023-04-24T03:47:50;12.52;;;9.57;;
37983;SDS011;64625;50.882;4.376;2023-04-24T03:50:16;18.05;;;9.00;;
37983;SDS011;64625;50.882;4.376;2023-04-24T03:52:41;15.98;;;8.45;;
37983;SDS011;64625;50.882;4.376;2023-04-24T03:55:07;13.88;;;8.30;;
37983;SDS011;64625;50.882;4.376;2023-04-24T03:57:33;18.00;;;8.02;;
37983;SDS011;64625;50.882;4.376;2023-04-24T03:59:59;18.65;;;8.98;;
37983;SDS011;64625;50.882;4.376;2023-04-24T04:02:25;15.05;;;8.57;;
37983;SDS011;64625;50.882;4.376;2023-04-24T04:04:51;18.45;;;8.48;;
37983;SDS011;64625;50.882;4.376;2023-04-24T04:07:16;19.95;;;9.30;;
37983;SDS011;64625;50.882;4.376;2023-04-24T04:09:42;15.38;;;8.65;;
37983;SDS011;64625;50.882;4.376;2023-04-24T04:12:08;16.23;;;9.25;;
37983;SDS011;64625;50.882;4.376;2023-04-24T04:14:34;12.52;;;8.23;;
37983;SDS011;64625;50.882;4.376;2023-04-24T04:17:00;13.30;;;7.70;;
37983;SDS011;64625;50.882;4.376;2023-04-24T04:19:26;14.00;;;8.43;;
37983;SDS011;64625;50.882;4.376;2023-04-24T04:21:51;11.18;;;6.85;;
37983;SDS011;64625;50.882;4.376;2023-04-24T04:24:19;20.50;;;10.02;;
37983;SDS011;64625;50.882;4.376;2023-04-24T04:26:49;18.67;;;8.33;;
37983;SDS011;64625;50.882;4.376;2023-04-24T04:29:16;12.50;;;9.02;;
37983;SDS011;64625;50.882;4.376;2023-04-24T04:31:43;16.70;;;8.48;;
37983;SDS011;64625;50.882;4.376;2023-04-24T04:34:09;16.42;;;8.25;;
37983;SDS011;64625;50.882;4.376;2023-04-24T04:36:36;14.35;;;7.82;;
37983;SDS011;64625;50.882;4.376;2023-04-24T04:39:05;12.68;;;7.97;;
37983;SDS011;64625;50.882;4.376;2023-04-24T04:41:31;18.08;;;8.90;;
37983;SDS011;64625;50.882;4.376;2023-04-24T04:44:00;12.95;;;7.90;;
37983;SDS011;64625;50.882;4.376;2023-04-24T04:46:32;14.23;;;7.63;;
37983;SDS011;64625;50.882;4.376;2023-04-24T04:48:59;13.05;;;7.70;;
37983;SDS011;64625;50.882;4.376;2023-04-24T04:51:28;14.00;;;10.02;;
37983;SDS011;64625;50.882;4.376;2023-04-24T04:53:54;18.25;;;8.73;;
37983;SDS011;64625;50.882;4.376;2023-04-24T04:56:20;17.05;;;9.23;;
37983;SDS011;64625;50.882;4.376;2023-04-24T04:58:45;19.25;;;8.60;;
37983;SDS011;64625;50.882;4.376;2023-04-24T05:01:11;18.38;;;9.02;;
37983;SDS011;64625;50.882;4.376;2023-04-24T05:03:37;12.95;;;9.27;;
37983;SDS011;64625;50.882;4.376;2023-04-24T05:06:03;21.23;;;10.40;;
37983;SDS011;64625;50.882;4.376;2023-04-24T05:08:30;22.85;;;11.45;;
37983;SDS011;64625;50.882;4.376;2023-04-24T05:10:55;28.42;;;13.27;;
37983;SDS011;64625;50.882;4.376;2023-04-24T05:13:21;24.45;;;11.88;;
37983;SDS011;64625;50.882;4.376;2023-04-24T05:15:47;21.52;;;12.05;;
37983;SDS011;64625;50.882;4.376;2023-04-24T05:18:13;20.88;;;12.05;;
37983;SDS011;64625;50.882;4.376;2023-04-24T05:20:39;24.33;;;12.15;;
37983;SDS011;64625;50.882;4.376;2023-04-24T05:23:04;25.83;;;13.63;;
37983;SDS011;64625;50.882;4.376;2023-04-24T05:25:30;31.80;;;14.25;;
37983;SDS011;64625;50.882;4.376;2023-04-24T05:28:01;28.95;;;12.55;;
37983;SDS011;64625;50.882;4.376;2023-04-24T05:30:28;26.50;;;13.75;;
37983;SDS011;64625;50.882;4.376;2023-04-24T05:32:54;36.08;;;14.70;;
37983;SDS011;64625;50.882;4.376;2023-04-24T05:35:20;28.17;;;14.98;;
37983;SDS011;64625;50.882;4.376;2023-04-24T05:37:46;25.30;;;15.68;;
37983;SDS011;64625;50.882;4.376;2023-04-24T05:40:12;31.50;;;14.80;;
37983;SDS011;64625;50.882;4.376;2023-04-24T05:42:38;26.85;;;14.10;;
37983;SDS011;64625;50.882;4.376;2023-04-24T05:45:04;26.92;;;13.48;;
37983;SDS011;64625;50.882;4.376;2023-04-24T05:47:30;35.60;;;15.45;;
37983;SDS011;64625;50.882;4.376;2023-04-24T05:49:56;27.95;;;13.70;;
37983;SDS011;64625;50.882;4.376;2023-04-24T05:52:22;25.98;;;13.10;;
37983;SDS011;64625;50.882;4.376;2023-04-24T05:54:48;42.63;;;14.65;;
37983;SDS011;64625;50.882;4.376;2023-04-24T05:57:14;31.45;;;14.77;;
37983;SDS011;64625;50.882;4.376;2023-04-24T05:59:40;27.77;;;14.82;;
37983;SDS011;64625;50.882;4.376;2023-04-24T06:02:06;29.27;;;14.13;;
37983;SDS011;64625;50.882;4.376;2023-04-24T06:04:33;36.17;;;15.23;;
37983;SDS011;64625;50.882;4.376;2023-04-24T06:06:59;28.30;;;14.90;;
37983;SDS011;64625;50.882;4.376;2023-04-24T06:09:28;36.35;;;15.77;;
37983;SDS011;64625;50.882;4.376;2023-04-24T06:11:53;37.47;;;14.90;;
37983;SDS011;64625;50.882;4.376;2023-04-24T06:14:19;43.47;;;15.90;;
37983;SDS011;64625;50.882;4.376;2023-04-24T06:16:46;24.02;;;14.07;;
37983;SDS011;64625;50.882;4.376;2023-04-24T06:19:12;29.20;;;14.70;;
37983;SDS011;64625;50.882;4.376;2023-04-24T06:21:38;36.42;;;16.63;;
37983;SDS011;64625;50.882;4.376;2023-04-24T06:24:03;38.95;;;15.98;;
37983;SDS011;64625;50.882;4.376;2023-04-24T06:26:29;39.70;;;16.25;;
37983;SDS011;64625;50.882;4.376;2023-04-24T06:28:55;34.13;;;17.35;;
37983;SDS011;64625;50.882;4.376;2023-04-24T06:31:24;33.00;;;15.95;;
37983;SDS011;64625;50.882;4.376;2023-04-24T06:33:50;40.05;;;16.20;;
37983;SDS011;64625;50.882;4.376;2023-04-24T06:36:16;40.42;;;17.45;;
37983;SDS011;64625;50.882;4.376;2023-04-24T06:38:42;45.50;;;18.27;;
37983;SDS011;64625;50.882;4.376;2023-04-24T06:41:09;39.03;;;18.08;;
37983;SDS011;64625;50.882;4.376;2023-04-24T06:43:35;42.60;;;19.27;;
37983;SDS011;64625;50.882;4.376;2023-04-24T06:46:02;45.30;;;17.98;;
37983;SDS011;64625;50.882;4.376;2023-04-24T06:48:30;61.92;;;21.20;;
37983;SDS011;64625;50.882;4.376;2023-04-24T06:50:56;44.20;;;18.15;;
37983;SDS011;64625;50.882;4.376;2023-04-24T06:53:22;41.67;;;21.40;;
37983;SDS011;64625;50.882;4.376;2023-04-24T06:55:47;40.15;;;20.45;;
37983;SDS011;64625;50.882;4.376;2023-04-24T06:58:13;40.03;;;21.58;;
37983;SDS011;64625;50.882;4.376;2023-04-24T07:00:40;46.42;;;22.63;;
37983;SDS011;64625;50.882;4.376;2023-04-24T07:03:06;45.72;;;21.58;;
37983;SDS011;64625;50.882;4.376;2023-04-24T07:05:32;50.78;;;19.10;;
37983;SDS011;64625;50.882;4.376;2023-04-24T07:08:00;67.50;;;23.17;;
37983;SDS011;64625;50.882;4.376;2023-04-24T07:10:27;55.60;;;23.80;;
37983;SDS011;64625;50.882;4.376;2023-04-24T07:12:54;46.22;;;20.15;;
37983;SDS011;64625;50.882;4.376;2023-04-24T07:15:21;58.47;;;20.10;;
37983;SDS011;64625;50.882;4.376;2023-04-24T07:17:48;59.35;;;21.63;;
37983;SDS011;64625;50.882;4.376;2023-04-24T07:20:14;52.97;;;21.50;;
37983;SDS011;64625;50.882;4.376;2023-04-24T07:22:40;56.22;;;20.90;;
37983;SDS011;64625;50.882;4.376;2023-04-24T07:25:09;47.47;;;20.35;;
37983;SDS011;64625;50.882;4.376;2023-04-24T07:27:35;50.03;;;20.05;;
37983;SDS011;64625;50.882;4.376;2023-04-24T07:30:02;58.75;;;19.08;;
37983;SDS011;64625;50.882;4.376;2023-04-24T07:32:29;57.45;;;20.23;;
37983;SDS011;64625;50.882;4.376;2023-04-24T07:34:55;43.63;;;16.80;;
37983;SDS011;64625;50.882;4.376;2023-04-24T07:37:21;39.35;;;18.45;;
37983;SDS011;64625;50.882;4.376;2023-04-24T07:39:50;53.15;;;20.77;;
37983;SDS011;64625;50.882;4.376;2023-04-24T07:42:16;62.78;;;21.20;;
37983;SDS011;64625;50.882;4.376;2023-04-24T07:44:44;55.88;;;18.60;;
37983;SDS011;64625;50.882;4.376;2023-04-24T07:47:12;41.67;;;16.23;;
37983;SDS011;64625;50.882;4.376;2023-04-24T07:49:37;60.03;;;18.98;;
37983;SDS011;64625;50.882;4.376;2023-04-24T07:52:04;47.97;;;19.65;;
37983;SDS011;64625;50.882;4.376;2023-04-24T07:54:30;66.18;;;18.27;;
37983;SDS011;64625;50.882;4.376;2023-04-24T07:56:56;43.70;;;19.15;;
37983;SDS011;64625;50.882;4.376;2023-04-24T07:59:22;66.25;;;21.30;;
37983;SDS011;64625;50.882;4.376;2023-04-24T08:01:47;66.15;;;21.13;;
37983;SDS011;64625;50.882;4.376;2023-04-24T08:04:14;64.13;;;22.15;;
37983;SDS011;64625;50.882;4.376;2023-04-24T08:06:40;76.13;;;24.15;;
37983;SDS011;64625;50.882;4.376;2023-04-24T08:09:06;66.22;;;22.02;;
37983;SDS011;64625;50.882;4.376;2023-04-24T08:11:32;66.47;;;22.27;;
37983;SDS011;64625;50.882;4.376;2023-04-24T08:13:58;68.30;;;20.83;;
37983;SDS011;64625;50.882;4.376;2023-04-24T08:16:23;64.10;;;19.95;;
37983;SDS011;64625;50.882;4.376;2023-04-24T08:18:49;54.70;;;21.17;;
37983;SDS011;64625;50.882;4.376;2023-04-24T08:21:15;75.03;;;20.80;;
37983;SDS011;64625;50.882;4.376;2023-04-24T08:23:44;36.20;;;16.55;;
37983;SDS011;64625;50.882;4.376;2023-04-24T08:26:11;54.35;;;18.65;;
37983;SDS011;64625;50.882;4.376;2023-04-24T08:28:37;49.33;;;18.13;;
37983;SDS011;64625;50.882;4.376;2023-04-24T08:31:04;56.40;;;17.10;;
37983;SDS011;64625;50.882;4.376;2023-04-24T08:33:31;60.88;;;19.40;;
37983;SDS011;64625;50.882;4.376;2023-04-24T08:36:02;55.42;;;18.42;;
37983;SDS011;64625;50.882;4.376;2023-04-24T08:38:29;42.30;;;17.30;;
37983;SDS011;64625;50.882;4.376;2023-04-24T08:41:00;48.70;;;17.38;;
37983;SDS011;64625;50.882;4.376;2023-04-24T08:43:26;37.42;;;17.25;;
37983;SDS011;64625;50.882;4.376;2023-04-24T08:45:53;46.42;;;19.17;;
37983;SDS011;64625;50.882;4.376;2023-04-24T08:48:21;42.97;;;16.75;;
37983;SDS011;64625;50.882;4.376;2023-04-24T08:50:48;48.42;;;15.82;;
37983;SDS011;64625;50.882;4.376;2023-04-24T08:53:16;45.90;;;15.48;;
37983;SDS011;64625;50.882;4.376;2023-04-24T08:55:43;48.22;;;16.77;;
37983;SDS011;64625;50.882;4.376;2023-04-24T08:58:13;53.00;;;15.02;;
37983;SDS011;64625;50.882;4.376;2023-04-24T09:00:41;53.83;;;14.18;;
37983;SDS011;64625;50.882;4.376;2023-04-24T09:03:12;43.25;;;15.57;;
37983;SDS011;64625;50.882;4.376;2023-04-24T09:05:46;37.03;;;14.25;;
37983;SDS011;64625;50.882;4.376;2023-04-24T09:08:13;31.15;;;14.73;;
37983;SDS011;64625;50.882;4.376;2023-04-24T09:10:40;36.22;;;14.88;;
37983;SDS011;64625;50.882;4.376;2023-04-24T09:13:06;43.83;;;16.77;;
37983;SDS011;64625;50.882;4.376;2023-04-24T09:15:34;36.20;;;13.30;;
37983;SDS011;64625;50.882;4.376;2023-04-24T09:18:00;33.78;;;10.93;;
37983;SDS011;64625;50.882;4.376;2023-04-24T09:20:27;24.90;;;10.40;;
